createdAt,value
2022-12-01T00:01:22.749Z,102328.84
2022-12-01T00:03:49.768Z,102326.34
2022-12-01T00:06:20.225Z,102329.09
2022-12-01T00:09:10.899Z,102326.50
2022-12-01T00:11:39.842Z,102322.19
2022-12-01T00:14:07.178Z,102325.84
2022-12-01T00:16:34.108Z,102323.19
2022-12-01T00:19:00.940Z,102327.72
2022-12-01T00:21:28.742Z,102320.50
2022-12-01T00:23:58.166Z,102325.00
2022-12-01T00:26:27.219Z,102325.81
2022-12-01T00:28:58.091Z,102319.53
2022-12-01T00:31:26.185Z,102316.88
2022-12-01T00:33:53.344Z,102318.59
2022-12-01T00:36:21.531Z,102316.88
2022-12-01T00:38:51.153Z,102325.81
2022-12-01T00:41:18.205Z,102321.31
2022-12-01T00:43:44.976Z,102324.06
2022-12-01T00:46:11.708Z,102327.63
2022-12-01T00:48:38.556Z,102319.53
2022-12-01T00:51:05.646Z,102314.16
2022-12-01T00:53:32.773Z,102325.75
2022-12-01T00:56:00.031Z,102321.28
2022-12-01T00:58:27.482Z,102326.63
2022-12-01T01:01:02.473Z,102324.75
2022-12-01T01:03:30.142Z,102316.63
2022-12-01T01:06:00.272Z,102327.41
2022-12-01T01:08:26.966Z,102329.31
2022-12-01T01:10:53.654Z,102327.59
2022-12-01T01:13:20.453Z,102330.25
2022-12-01T01:16:02.627Z,102326.63
2022-12-01T01:18:30.282Z,102328.53
2022-12-01T01:21:10.715Z,102328.56
2022-12-01T01:23:38.406Z,102333.13
2022-12-01T01:26:14.553Z,102337.59
2022-12-01T01:28:41.760Z,102343.94
2022-12-01T01:31:11.843Z,102335.06
2022-12-01T01:33:39.045Z,102338.66
2022-12-01T01:36:07.185Z,102341.31
2022-12-01T01:38:35.062Z,102338.66
2022-12-01T01:41:03.787Z,102351.09
2022-12-01T01:43:44.156Z,102346.66
2022-12-01T01:46:18.409Z,102349.38
2022-12-01T01:48:54.744Z,102353.81
2022-12-01T01:51:49.277Z,102352.91
2022-12-01T01:54:25.086Z,102345.78
2022-12-01T01:56:54.773Z,102347.47
2022-12-01T01:59:29.651Z,102344.75
2022-12-01T02:02:06.559Z,102349.16
2022-12-01T02:04:40.178Z,102357.09
2022-12-01T02:07:15.580Z,102352.59
2022-12-01T02:09:42.276Z,102347.25
2022-12-01T02:12:46.875Z,102343.66
2022-12-01T02:15:54.891Z,102354.44
2022-12-01T02:18:50.328Z,102349.09
2022-12-01T02:21:47.468Z,102344.69
2022-12-01T02:24:26.120Z,102355.41
2022-12-01T02:27:02.189Z,102343.78
2022-12-01T02:29:50.860Z,102351.78
2022-12-01T02:32:28.140Z,102354.44
2022-12-01T02:35:12.792Z,102354.44
2022-12-01T02:38:19.082Z,102349.06
2022-12-01T02:41:20.372Z,102354.38
2022-12-01T02:44:05.784Z,102356.22
2022-12-01T02:46:39.700Z,102350.88
2022-12-01T02:49:19.459Z,102349.91
2022-12-01T02:51:48.727Z,102353.59
2022-12-01T02:54:16.013Z,102347.38
2022-12-01T02:56:46.064Z,102350.94
2022-12-01T02:59:15.294Z,102352.78
2022-12-01T03:02:00.644Z,102359.97
2022-12-01T03:04:56.422Z,102356.34
2022-12-01T03:07:47.988Z,102358.19
2022-12-01T03:10:33.826Z,102356.44
2022-12-01T03:13:37.968Z,102358.25
2022-12-01T03:16:39.068Z,102354.75
2022-12-01T03:19:18.792Z,102357.31
2022-12-01T03:22:04.855Z,102356.31
2022-12-01T03:24:34.356Z,102356.34
2022-12-01T03:27:04.328Z,102351.91
2022-12-01T03:29:41.443Z,102355.47
2022-12-01T03:32:20.522Z,102355.41
2022-12-01T03:34:49.962Z,102356.28
2022-12-01T03:37:32.286Z,102354.44
2022-12-01T03:40:02.638Z,102349.94
2022-12-01T03:42:43.378Z,102348.06
2022-12-01T03:45:20.020Z,102352.53
2022-12-01T03:47:47.091Z,102349.91
2022-12-01T03:50:15.400Z,102351.72
2022-12-01T03:53:02.289Z,102353.47
2022-12-01T03:55:35.665Z,102354.38
2022-12-01T03:58:25.976Z,102350.91
2022-12-01T04:00:57.504Z,102359.88
2022-12-01T04:03:26.508Z,102363.41
2022-12-01T04:05:53.791Z,102359.84
2022-12-01T04:08:20.627Z,102363.41
2022-12-01T04:10:47.379Z,102364.28
2022-12-01T04:13:22.744Z,102365.16
2022-12-01T04:15:51.127Z,102367.88
2022-12-01T04:18:19.079Z,102358.97
2022-12-01T04:20:50.141Z,102367.88
2022-12-01T04:23:35.329Z,102367.00
2022-12-01T04:26:04.811Z,102363.41
2022-12-01T04:28:31.780Z,102364.31
2022-12-01T04:30:58.525Z,102362.53
2022-12-01T04:33:25.771Z,102366.06
2022-12-01T04:36:00.099Z,102366.94
2022-12-01T04:38:30.561Z,102358.94
2022-12-01T04:40:58.207Z,102357.09
2022-12-01T04:43:25.087Z,102352.59
2022-12-01T04:45:51.784Z,102354.38
2022-12-01T04:48:18.604Z,102354.38
2022-12-01T04:50:45.308Z,102356.13
2022-12-01T04:53:12.025Z,102349.88
2022-12-01T04:55:39.392Z,102355.19
2022-12-01T04:58:06.810Z,102357.84
2022-12-01T05:00:34.301Z,102361.38
2022-12-01T05:03:01.218Z,102359.59
2022-12-01T05:05:28.130Z,102354.28
2022-12-01T05:07:55.003Z,102360.56
2022-12-01T05:10:22.300Z,102359.66
2022-12-01T05:12:49.691Z,102357.91
2022-12-01T05:15:17.060Z,102354.38
2022-12-01T05:17:44.452Z,102352.59
2022-12-01T05:20:39.661Z,102361.50
2022-12-01T05:23:08.261Z,102367.81
2022-12-01T05:25:37.897Z,102365.25
2022-12-01T05:28:06.516Z,102365.34
2022-12-01T05:30:33.423Z,102367.16
2022-12-01T05:33:00.211Z,102368.97
2022-12-01T05:35:27.419Z,102368.91
2022-12-01T05:37:54.244Z,102370.75
2022-12-01T05:40:21.066Z,102374.34
2022-12-01T05:42:47.867Z,102374.34
2022-12-01T05:45:14.747Z,102374.34
2022-12-01T05:47:41.510Z,102374.34
2022-12-01T05:50:09.067Z,102372.59
2022-12-01T05:52:36.622Z,102375.28
2022-12-01T05:55:05.731Z,102374.34
2022-12-01T05:57:33.926Z,102374.34
2022-12-01T06:00:00.696Z,102379.78
2022-12-01T06:02:27.446Z,102373.53
2022-12-01T06:04:54.190Z,102378.09
2022-12-01T06:07:23.456Z,102375.47
2022-12-01T06:09:50.534Z,102378.16
2022-12-01T06:12:19.229Z,102381.66
2022-12-01T06:14:47.515Z,102379.91
2022-12-01T06:17:15.053Z,102385.28
2022-12-01T06:19:43.351Z,102385.28
2022-12-01T06:22:10.999Z,102374.50
2022-12-01T06:24:37.680Z,102384.25
2022-12-01T06:27:04.418Z,102376.19
2022-12-01T06:29:31.224Z,102378.00
2022-12-01T06:31:58.144Z,102383.47
2022-12-01T06:34:24.914Z,102381.69
2022-12-01T06:36:51.690Z,102387.00
2022-12-01T06:39:18.531Z,102388.66
2022-12-01T06:41:45.268Z,102382.34
2022-12-01T06:44:12.044Z,102382.34
2022-12-01T06:46:38.861Z,102384.19
2022-12-01T06:49:05.824Z,102387.81
2022-12-01T06:51:34.346Z,102390.50
2022-12-01T06:54:05.433Z,102394.09
2022-12-01T06:56:32.572Z,102399.44
2022-12-01T06:58:59.764Z,102397.63
2022-12-01T07:01:27.068Z,102404.75
2022-12-01T07:03:54.808Z,102412.75
2022-12-01T07:06:21.867Z,102421.69
2022-12-01T07:08:48.693Z,102419.97
2022-12-01T07:11:16.628Z,102416.38
2022-12-01T07:13:49.432Z,102418.19
2022-12-01T07:16:16.425Z,102414.69
2022-12-01T07:18:45.091Z,102416.50
2022-12-01T07:21:15.068Z,102421.03
2022-12-01T07:23:42.447Z,102425.53
2022-12-01T07:26:16.415Z,102415.72
2022-12-01T07:28:44.662Z,102417.50
2022-12-01T07:31:18.452Z,102420.22
2022-12-01T07:33:45.485Z,102418.56
2022-12-01T07:36:13.646Z,102433.78
2022-12-01T07:38:40.750Z,102428.44
2022-12-01T07:41:12.291Z,102419.56
2022-12-01T07:43:39.962Z,102428.44
2022-12-01T07:46:18.920Z,102430.19
2022-12-01T07:48:49.277Z,102430.13
2022-12-01T07:51:17.356Z,102425.59
2022-12-01T07:53:50.404Z,102426.44
2022-12-01T07:56:19.009Z,102430.00
2022-12-01T07:58:47.448Z,102430.91
2022-12-01T08:01:27.473Z,102436.28
2022-12-01T08:03:57.471Z,102437.13
2022-12-01T08:06:26.938Z,102438.81
2022-12-01T08:08:53.704Z,102435.22
2022-12-01T08:11:25.073Z,102442.25
2022-12-01T08:13:53.245Z,102451.09
2022-12-01T08:16:23.200Z,102447.47
2022-12-01T08:18:51.073Z,102454.53
2022-12-01T08:21:21.161Z,102441.09
2022-12-01T08:23:48.850Z,102447.25
2022-12-01T08:26:18.531Z,102456.16
2022-12-01T08:28:46.639Z,102448.97
2022-12-01T08:31:22.087Z,102450.72
2022-12-01T08:33:50.655Z,102448.88
2022-12-01T08:36:18.798Z,102447.94
2022-12-01T08:38:49.525Z,102454.13
2022-12-01T08:41:17.196Z,102448.75
2022-12-01T08:44:00.317Z,102452.41
2022-12-01T08:46:32.461Z,102461.44
2022-12-01T08:48:59.431Z,102459.81
2022-12-01T08:51:27.112Z,102458.13
2022-12-01T08:53:57.433Z,102450.16
2022-12-01T08:56:29.012Z,102454.66
2022-12-01T08:58:56.537Z,102456.56
2022-12-01T09:01:23.792Z,102459.34
2022-12-01T09:04:05.124Z,102460.28
2022-12-01T09:06:39.881Z,102459.53
2022-12-01T09:09:09.646Z,102463.06
2022-12-01T09:11:37.353Z,102463.09
2022-12-01T09:14:04.112Z,102460.44
2022-12-01T09:16:31.650Z,102456.84
2022-12-01T09:18:58.488Z,102463.03
2022-12-01T09:21:31.334Z,102457.59
2022-12-01T09:23:59.672Z,102463.84
2022-12-01T09:26:27.176Z,102470.91
2022-12-01T09:28:58.358Z,102464.53
2022-12-01T09:31:25.934Z,102466.34
2022-12-01T09:34:17.228Z,102469.00
2022-12-01T09:36:44.582Z,102470.69
2022-12-01T09:39:20.754Z,102470.53
2022-12-01T09:41:56.128Z,102476.72
2022-12-01T09:44:47.854Z,102476.66
2022-12-01T09:47:36.716Z,102473.75
2022-12-01T09:50:18.803Z,102480.72
2022-12-01T09:52:45.626Z,102467.94
2022-12-01T09:55:16.324Z,102472.94
2022-12-01T09:57:47.414Z,102463.66
2022-12-01T10:00:22.188Z,102466.13
2022-12-01T10:03:16.668Z,102460.53
2022-12-01T10:06:26.193Z,102459.34
2022-12-01T10:08:59.729Z,102464.41
2022-12-01T10:11:39.624Z,102455.31
2022-12-01T10:14:20.139Z,102449.78
2022-12-01T10:17:14.382Z,102454.91
2022-12-01T10:20:06.116Z,102450.94
2022-12-01T10:22:53.761Z,102454.41
2022-12-01T10:25:24.753Z,102445.31
2022-12-01T10:28:17.541Z,102442.31
2022-12-01T10:30:53.401Z,102435.09
2022-12-01T10:33:24.405Z,102434.22
2022-12-01T10:35:52.870Z,102436.94
2022-12-01T10:38:32.636Z,102434.22
2022-12-01T10:41:02.404Z,102432.44
2022-12-01T10:43:59.419Z,102435.84
2022-12-01T10:46:48.266Z,102428.28
2022-12-01T10:49:18.023Z,102429.72
2022-12-01T10:51:52.999Z,102418.59
2022-12-01T10:54:22.601Z,102428.38
2022-12-01T10:56:55.965Z,102422.31
2022-12-01T10:59:27.580Z,102423.41
2022-12-01T11:01:55.100Z,102416.44
2022-12-01T11:04:45.207Z,102420.81
2022-12-01T11:07:19.107Z,102418.19
2022-12-01T11:09:55.021Z,102422.91
2022-12-01T11:12:23.493Z,102419.47
2022-12-01T11:14:54.325Z,102414.19
2022-12-01T11:17:42.863Z,102411.53
2022-12-01T11:20:38.546Z,102414.38
2022-12-01T11:23:26.714Z,102412.53
2022-12-01T11:25:59.432Z,102414.38
2022-12-01T11:28:26.824Z,102417.06
2022-12-01T11:31:10.348Z,102411.53
2022-12-01T11:33:51.131Z,102411.53
2022-12-01T11:36:36.680Z,102413.22
2022-12-01T11:39:05.020Z,102405.25
2022-12-01T11:41:40.878Z,102404.59
2022-12-01T11:47:24.418Z,102396.59
2022-12-01T11:50:01.919Z,102394.72
2022-12-01T11:52:36.605Z,102395.59
2022-12-01T11:55:22.876Z,102393.72
2022-12-01T11:57:55.483Z,102393.78
2022-12-01T12:00:28.656Z,102391.09
2022-12-01T12:03:24.509Z,102389.06
2022-12-01T12:06:39.946Z,102388.97
2022-12-01T12:09:30.795Z,102383.50
2022-12-01T12:12:31.113Z,102383.28
2022-12-01T12:15:18.854Z,102385.16
2022-12-01T12:18:15.854Z,102382.66
2022-12-01T12:21:01.295Z,102382.78
2022-12-01T12:24:05.307Z,102377.41
2022-12-01T12:26:54.514Z,102381.09
2022-12-01T12:29:52.279Z,102374.06
2022-12-01T12:32:44.595Z,102375.75
2022-12-01T12:35:20.111Z,102373.88
2022-12-01T12:38:34.693Z,102373.88
2022-12-01T12:41:29.774Z,102369.44
2022-12-01T12:44:18.189Z,102364.63
2022-12-01T12:47:27.986Z,102361.78
2022-12-01T12:50:19.736Z,102363.47
2022-12-01T12:52:54.708Z,102356.22
2022-12-01T12:55:30.339Z,102359.66
2022-12-01T12:58:10.794Z,102360.44
2022-12-01T13:00:50.429Z,102355.88
2022-12-01T13:03:33.944Z,102356.94
2022-12-01T13:06:10.712Z,102348.00
2022-12-01T13:08:53.179Z,102364.13
2022-12-01T13:11:30.516Z,102350.34
2022-12-01T13:14:18.226Z,102354.31
2022-12-01T13:16:50.399Z,102349.31
2022-12-01T13:19:32.410Z,102352.50
2022-12-01T13:22:01.300Z,102339.44
2022-12-01T13:24:31.374Z,102339.34
2022-12-01T13:27:06.076Z,102337.38
2022-12-01T13:29:43.833Z,102333.72
2022-12-01T13:32:31.519Z,102333.00
2022-12-01T13:35:00.660Z,102334.06
2022-12-01T13:37:34.432Z,102325.28
2022-12-01T13:40:30.938Z,102323.72
2022-12-01T13:43:10.274Z,102326.66
2022-12-01T13:45:40.673Z,102331.94
2022-12-01T13:48:29.979Z,102320.13
2022-12-01T13:51:01.113Z,102324.69
2022-12-01T13:53:38.892Z,102313.41
2022-12-01T13:56:27.610Z,102320.09
2022-12-01T13:58:55.143Z,102319.63
2022-12-01T14:01:22.470Z,102311.13
2022-12-01T14:04:18.165Z,102326.56
2022-12-01T14:06:50.079Z,102323.03
2022-12-01T14:09:36.604Z,102329.25
2022-12-01T14:12:16.954Z,102325.72
2022-12-01T14:14:57.412Z,102325.00
2022-12-01T14:17:29.871Z,102332.13
2022-12-01T14:20:20.537Z,102330.53
2022-12-01T14:23:13.138Z,102328.00
2022-12-01T14:25:41.825Z,102334.53
2022-12-01T14:28:55.782Z,102337.47
2022-12-01T14:31:24.112Z,102339.41
2022-12-01T14:34:02.770Z,102343.03
2022-12-01T14:36:38.138Z,102342.19
2022-12-01T14:39:22.364Z,102339.72
2022-12-01T14:41:58.239Z,102339.88
2022-12-01T14:44:48.942Z,102343.50
2022-12-01T14:47:42.021Z,102333.66
2022-12-01T14:50:25.246Z,102336.34
2022-12-01T14:53:08.949Z,102329.31
2022-12-01T14:55:47.499Z,102323.22
2022-12-01T14:58:22.656Z,102329.69
2022-12-01T15:01:14.155Z,102322.75
2022-12-01T15:03:50.599Z,102318.31
2022-12-01T15:06:20.825Z,102323.63
2022-12-01T15:09:39.548Z,102326.38
2022-12-01T15:12:07.677Z,102335.25
2022-12-01T15:14:49.503Z,102332.56
2022-12-01T15:17:34.595Z,102329.88
2022-12-01T15:20:01.678Z,102335.25
2022-12-01T15:22:34.046Z,102337.16
2022-12-01T15:25:15.589Z,102338.13
2022-12-01T15:27:43.393Z,102344.50
2022-12-01T15:30:15.892Z,102332.88
2022-12-01T15:32:45.906Z,102336.53
2022-12-01T15:35:22.829Z,102342.00
2022-12-01T15:37:52.273Z,102348.47
2022-12-01T15:43:39.824Z,102337.91
2022-12-01T15:46:18.994Z,102345.03
2022-12-01T15:48:46.034Z,102341.41
2022-12-01T15:51:29.607Z,102349.28
2022-12-01T15:54:01.540Z,102343.97
2022-12-01T15:56:40.621Z,102343.97
2022-12-01T15:59:23.987Z,102343.16
2022-12-01T16:01:50.967Z,102345.13
2022-12-01T16:04:22.982Z,102350.50
2022-12-01T16:07:10.600Z,102337.91
2022-12-01T16:09:40.402Z,102349.47
2022-12-01T16:12:23.185Z,102344.94
2022-12-01T16:15:00.217Z,102336.88
2022-12-01T16:17:49.655Z,102347.63
2022-12-01T16:20:42.940Z,102350.31
2022-12-01T16:23:19.239Z,102345.03
2022-12-01T16:25:48.526Z,102352.22
2022-12-01T16:28:33.001Z,102354.88
2022-12-01T16:30:59.818Z,102350.38
2022-12-01T16:33:29.011Z,102350.38
2022-12-01T16:36:00.216Z,102354.97
2022-12-01T16:38:29.100Z,102354.16
2022-12-01T16:40:59.875Z,102353.25
2022-12-01T16:43:29.362Z,102355.00
2022-12-01T16:46:06.586Z,102353.31
2022-12-01T16:48:34.996Z,102348.09
2022-12-01T16:51:06.409Z,102348.22
2022-12-01T16:53:33.328Z,102340.31
2022-12-01T16:56:03.332Z,102351.97
2022-12-01T16:58:30.488Z,102345.72
2022-12-01T17:00:57.597Z,102345.84
2022-12-01T17:03:28.201Z,102350.41
2022-12-01T17:05:56.135Z,102355.00
2022-12-01T17:08:23.277Z,102345.19
2022-12-01T17:10:51.460Z,102349.72
2022-12-01T17:13:25.471Z,102347.03
2022-12-01T17:15:54.836Z,102349.72
2022-12-01T17:18:24.141Z,102349.75
2022-12-01T17:21:04.282Z,102349.78
2022-12-01T17:23:32.985Z,102352.44
2022-12-01T17:26:01.086Z,102356.84
2022-12-01T17:28:27.865Z,102340.69
2022-12-01T17:30:54.698Z,102347.94
2022-12-01T17:33:21.506Z,102345.31
2022-12-01T17:35:49.830Z,102348.06
2022-12-01T17:38:16.802Z,102346.28
2022-12-01T17:40:44.130Z,102348.13
2022-12-01T17:43:15.392Z,102348.16
2022-12-01T17:45:43.184Z,102348.25
2022-12-01T17:48:09.999Z,102353.63
2022-12-01T17:50:38.150Z,102353.69
2022-12-01T17:53:04.858Z,102359.06
2022-12-01T17:55:31.558Z,102357.28
2022-12-01T17:57:58.811Z,102352.03
2022-12-01T18:00:25.740Z,102364.56
2022-12-01T18:02:52.549Z,102348.41
2022-12-01T18:05:19.291Z,102350.97
2022-12-01T18:07:46.122Z,102359.03
2022-12-01T18:10:13.066Z,102355.38
2022-12-01T18:12:39.777Z,102348.16
2022-12-01T18:15:07.324Z,102353.53
2022-12-01T18:17:34.544Z,102356.31
2022-12-01T18:20:01.537Z,102353.69
2022-12-01T18:22:28.289Z,102345.69
2022-12-01T18:24:56.304Z,102344.88
2022-12-01T18:27:23.180Z,102353.81
2022-12-01T18:29:50.125Z,102352.09
2022-12-01T18:32:17.408Z,102346.78
2022-12-01T18:34:44.280Z,102345.91
2022-12-01T18:37:11.027Z,102341.53
2022-12-01T18:39:37.804Z,102341.53
2022-12-01T18:42:05.203Z,102336.22
2022-12-01T18:44:31.977Z,102338.91
2022-12-01T18:46:59.172Z,102341.66
2022-12-01T18:49:25.988Z,102334.56
2022-12-01T18:51:52.773Z,102332.78
2022-12-01T18:54:19.548Z,102336.34
2022-12-01T18:56:52.812Z,102339.13
2022-12-01T18:59:19.631Z,102337.34
2022-12-01T19:01:48.455Z,102332.00
2022-12-01T19:04:16.624Z,102333.84
2022-12-01T19:06:45.776Z,102338.31
2022-12-01T19:09:17.477Z,102332.03
2022-12-01T19:11:44.617Z,102342.81
2022-12-01T19:14:18.593Z,102335.72
2022-12-01T19:16:46.754Z,102331.34
2022-12-01T19:19:14.041Z,102335.84
2022-12-01T19:21:42.824Z,102332.34
2022-12-01T19:24:09.630Z,102333.31
2022-12-01T19:26:36.444Z,102332.41
2022-12-01T19:29:03.691Z,102342.19
2022-12-01T19:31:30.498Z,102336.78
2022-12-01T19:33:57.734Z,102335.84
2022-12-01T19:36:27.762Z,102341.22
2022-12-01T19:38:57.945Z,102342.19
2022-12-01T19:41:26.232Z,102345.72
2022-12-01T19:43:54.491Z,102345.78
2022-12-01T19:46:24.249Z,102344.84
2022-12-01T19:49:00.382Z,102343.13
2022-12-01T19:51:32.321Z,102339.50
2022-12-01T19:53:59.142Z,102340.47
2022-12-01T19:56:26.178Z,102341.31
2022-12-01T19:58:53.079Z,102335.06
2022-12-01T20:01:20.773Z,102343.06
2022-12-01T20:03:51.037Z,102341.22
2022-12-01T20:06:22.643Z,102342.13
2022-12-01T20:08:50.322Z,102345.72
2022-12-01T20:11:18.050Z,102348.47
2022-12-01T20:13:47.071Z,102348.50
2022-12-01T20:16:23.535Z,102342.41
2022-12-01T20:18:52.164Z,102337.03
2022-12-01T20:21:24.969Z,102340.78
2022-12-01T20:23:58.175Z,102350.75
2022-12-01T20:26:35.166Z,102353.50
2022-12-01T20:29:10.745Z,102348.13
2022-12-01T20:31:38.622Z,102351.72
2022-12-01T20:34:14.252Z,102344.63
2022-12-01T20:36:41.236Z,102337.47
2022-12-01T20:39:10.108Z,102341.00
2022-12-01T20:41:38.076Z,102339.09
2022-12-01T20:44:07.518Z,102336.44
2022-12-01T20:46:36.918Z,102331.03
2022-12-01T20:49:05.405Z,102337.19
2022-12-01T20:51:35.276Z,102338.03
2022-12-01T20:54:38.906Z,102338.09
2022-12-01T20:56:56.419Z,102329.22
2022-12-01T20:59:23.285Z,102321.19
2022-12-01T21:01:50.096Z,102323.03
2022-12-01T21:04:17.323Z,102320.28
2022-12-01T21:06:44.158Z,102319.34
2022-12-01T21:09:12.416Z,102322.13
2022-12-01T21:12:06.670Z,102324.81
2022-12-01T21:14:44.504Z,102322.16
2022-12-01T21:17:42.277Z,102318.63
2022-12-01T21:20:27.146Z,102314.22
2022-12-01T21:23:22.852Z,102314.22
2022-12-01T21:25:50.876Z,102312.47
2022-12-01T21:28:24.208Z,102312.47
2022-12-01T21:31:07.228Z,102312.41
2022-12-01T21:33:36.741Z,102303.47
2022-12-01T21:36:15.944Z,102301.69
2022-12-01T21:38:44.004Z,102299.03
2022-12-01T21:41:26.605Z,102302.59
2022-12-01T21:44:07.776Z,102300.88
2022-12-01T21:46:35.255Z,102292.88
2022-12-01T21:49:02.491Z,102287.53
2022-12-01T21:51:30.864Z,102294.72
2022-12-01T21:53:58.116Z,102290.22
2022-12-01T21:56:28.657Z,102283.06
2022-12-01T21:59:02.430Z,102278.59
2022-12-01T22:01:32.020Z,102278.66
2022-12-01T22:04:02.605Z,102266.16
2022-12-01T22:06:39.533Z,102264.38
2022-12-01T22:09:33.058Z,102268.84
2022-12-01T22:12:29.083Z,102258.97
2022-12-01T22:15:01.585Z,102273.28
2022-12-01T22:17:29.778Z,102267.06
2022-12-01T22:20:01.482Z,102268.00
2022-12-01T22:22:32.708Z,102268.00
2022-12-01T22:25:27.422Z,102276.06
2022-12-01T22:27:54.766Z,102275.19
2022-12-01T22:30:24.400Z,102278.78
2022-12-01T22:33:05.052Z,102274.38
2022-12-01T22:35:44.918Z,102277.03
2022-12-01T22:38:36.003Z,102272.53
2022-12-01T22:41:14.982Z,102269.03
2022-12-01T22:44:00.602Z,102277.09
2022-12-01T22:46:32.512Z,102278.88
2022-12-01T22:49:22.284Z,102277.03
2022-12-01T22:52:01.018Z,102280.53
2022-12-01T22:54:54.181Z,102273.34
2022-12-01T22:57:35.018Z,102260.88
2022-12-01T23:00:16.210Z,102264.47
2022-12-01T23:02:43.159Z,102268.09
2022-12-01T23:05:30.063Z,102273.50
2022-12-01T23:07:57.629Z,102274.47
2022-12-01T23:10:35.174Z,102267.34
2022-12-01T23:13:15.815Z,102270.88
2022-12-01T23:15:48.761Z,102264.69
2022-12-01T23:18:29.294Z,102259.41
2022-12-01T23:20:59.138Z,102264.78
2022-12-01T23:23:29.413Z,102265.69
2022-12-01T23:25:56.922Z,102263.06
2022-12-01T23:28:24.841Z,102255.06
2022-12-01T23:30:55.040Z,102252.50
2022-12-01T23:33:25.934Z,102252.59
2022-12-01T23:36:08.616Z,102248.06
2022-12-01T23:38:42.439Z,102246.34
2022-12-01T23:41:38.913Z,102243.72
2022-12-01T23:44:36.099Z,102248.28
2022-12-01T23:47:05.165Z,102253.63
2022-12-01T23:49:35.531Z,102250.13
2022-12-01T23:52:03.771Z,102242.16
2022-12-01T23:54:34.558Z,102247.56
2022-12-01T23:57:10.692Z,102239.66
2022-12-01T23:59:38.476Z,102242.47
